Terminal Aerodrome Forecast
Issued by NWS South Bend, IN

Home | Current Version | Previous Version | Text Only | Print | Product List | Glossary On
Versions: 1 2 3 4 5 6 7 8 9 10 11 12 13 14 15 16 17 18 19
000
FTUS43 KIWX 052000 AAA
TAFSBN
TAF AMD
KSBN 052028Z 0520/0618 07006KT P6SM OVC015
      TEMPO 0520/0523 3SM BR BKN005
     FM060900 VRB03KT 1SM BR BKN035
     FM061500 24005KT P6SM BKN035=

USA.gov is the U.S. government's official web portal to all federal, state and local government web resources and services.